Time;durP1;ratioP1;P1;durP2;ratioP2;P2;SDS_P1;SDS_P2;PMS_P1;PMS_P2;Temp;Humidity;BMP_temperature;BMP_pressure;BME280_temperature;BME280_humidity;BME280_pressure;Samples;Min_cycle;Max_cycle;Signal;HPM_P1;HPM_P2
2021/08/22 00:01:46;;;;;;;;;;;16.20;85.70;;;;;;5093073;28;20488;-60
2021/08/22 00:04:11;;;;;;;;;;;16.20;86.10;;;;;;5092930;28;19947;-60
2021/08/22 00:06:37;;;;;;;;;;;16.20;86.10;;;;;;5092373;28;20303;-61
2021/08/22 00:09:02;;;;;;;;;;;16.20;86.00;;;;;;5092833;28;19927;-60
2021/08/22 00:11:28;;;;;;;;;;;16.20;85.40;;;;;;5092507;28;19920;-60
2021/08/22 00:13:53;;;;;;;;;;;16.20;85.90;;;;;;5092422;28;19912;-60
2021/08/22 00:16:20;;;;;;;;;;;16.20;85.90;;;;;;5092892;28;19954;-60
2021/08/22 00:18:46;;;;;;;;;;;16.20;85.80;;;;;;5092131;28;19920;-61
2021/08/22 00:21:11;;;;;;;;;;;16.20;85.40;;;;;;5074373;28;19924;-60
2021/08/22 00:23:37;;;;;;;;;;;16.20;85.80;;;;;;5074506;28;19920;-60
2021/08/22 00:26:03;;;;;;;;;;;16.20;85.90;;;;;;5092185;28;19973;-60
2021/08/22 00:28:30;;;;;;;;;;;16.30;86.00;;;;;;5091818;28;21261;-61
2021/08/22 00:30:56;;;;;;;;;;;16.30;85.60;;;;;;5092026;28;19923;-60
2021/08/22 00:33:21;;;;;;;;;;;16.30;86.00;;;;;;5057810;28;19916;-60
2021/08/22 00:35:47;;;;;;;;;;;16.40;86.00;;;;;;5087226;28;20261;-60
2021/08/22 00:38:13;;;;;;;;;;;16.40;85.90;;;;;;5075707;28;19928;-60
2021/08/22 00:40:39;;;;;;;;;;;16.50;85.20;;;;;;5081518;28;19916;-60
2021/08/22 00:43:05;;;;;;;;;;;16.50;85.60;;;;;;5078254;28;20341;-60
2021/08/22 00:45:30;;;;;;;;;;;16.50;85.50;;;;;;5091907;28;19942;-60
2021/08/22 00:47:56;;;;;;;;;;;16.50;85.40;;;;;;5091265;28;19928;-60
2021/08/22 00:50:22;;;;;;;;;;;16.50;84.80;;;;;;5091887;28;19928;-61
2021/08/22 00:52:50;;;;;;;;;;;16.50;85.20;;;;;;5090094;28;19955;-61
2021/08/22 00:55:15;;;;;;;;;;;16.50;85.10;;;;;;5071900;28;19924;-60
2021/08/22 00:57:41;;;;;;;;;;;16.50;85.10;;;;;;5053113;28;20292;-60
2021/08/22 01:00:08;;;;;;;;;;;16.60;85.00;;;;;;5071822;28;19924;-60
2021/08/22 01:02:35;;;;;;;;;;;16.60;84.90;;;;;;5071651;28;19927;-61
2021/08/22 01:05:10;;;;;;;;;;;16.60;84.70;;;;;;5054864;28;19917;-60
2021/08/22 01:07:42;;;;;;;;;;;16.60;84.70;;;;;;5091179;28;19989;-60
2021/08/22 01:10:08;;;;;;;;;;;16.60;84.60;;;;;;5073476;28;19916;-60
2021/08/22 01:12:36;;;;;;;;;;;16.60;84.50;;;;;;5091689;28;20422;-60
2021/08/22 01:15:06;;;;;;;;;;;16.60;84.40;;;;;;5091865;28;19916;-60
2021/08/22 01:17:32;;;;;;;;;;;16.60;84.40;;;;;;5085561;28;19916;-61
2021/08/22 01:20:08;;;;;;;;;;;16.70;84.30;;;;;;5071409;28;19927;-60
2021/08/22 01:22:36;;;;;;;;;;;16.60;84.10;;;;;;5052979;28;20300;-61
2021/08/22 01:25:02;;;;;;;;;;;16.60;84.00;;;;;;5071289;28;19952;-61
2021/08/22 01:27:29;;;;;;;;;;;16.60;83.90;;;;;;5070792;28;19973;-61
2021/08/22 01:30:00;;;;;;;;;;;16.60;84.30;;;;;;5077968;28;19922;-60
2021/08/22 01:32:33;;;;;;;;;;;16.60;83.70;;;;;;5090415;28;19916;-61
2021/08/22 01:34:59;;;;;;;;;;;16.60;83.70;;;;;;5073496;28;20434;-61
2021/08/22 01:37:25;;;;;;;;;;;16.50;83.50;;;;;;5091267;28;19983;-60
2021/08/22 01:39:51;;;;;;;;;;;16.50;83.50;;;;;;5072821;28;19916;-60
2021/08/22 01:42:16;;;;;;;;;;;16.50;83.30;;;;;;5079499;28;19966;-60
2021/08/22 01:44:43;;;;;;;;;;;16.50;83.70;;;;;;5053393;28;19921;-60
2021/08/22 01:47:09;;;;;;;;;;;16.40;83.20;;;;;;5070432;28;19920;-60
2021/08/22 01:49:35;;;;;;;;;;;16.40;83.10;;;;;;5071170;28;19920;-60
2021/08/22 01:52:01;;;;;;;;;;;16.40;82.60;;;;;;5070507;28;19917;-61
2021/08/22 01:54:27;;;;;;;;;;;16.40;83.00;;;;;;5062946;28;19931;-60
2021/08/22 01:56:52;;;;;;;;;;;16.40;83.00;;;;;;5091089;28;19928;-60
2021/08/22 01:59:18;;;;;;;;;;;16.40;82.90;;;;;;5072828;28;20014;-60
2021/08/22 02:01:43;;;;;;;;;;;16.40;82.40;;;;;;5073171;28;20391;-60
2021/08/22 02:04:18;;;;;;;;;;;16.40;82.70;;;;;;5091226;28;19928;-60
2021/08/22 02:06:48;;;;;;;;;;;16.40;82.70;;;;;;5087016;28;19946;-60
2021/08/22 02:09:16;;;;;;;;;;;17.80;83.30;;;;;;5091201;28;19916;-60
2021/08/22 02:11:43;;;;;;;;;;;16.40;81.90;;;;;;5112345;22;19931;-61
2021/08/22 02:14:10;;;;;;;;;;;16.40;82.30;;;;;;5092319;28;19916;-60
2021/08/22 02:16:36;;;;;;;;;;;16.40;82.20;;;;;;5093911;28;20371;-60
2021/08/22 02:19:02;;;;;;;;;;;16.40;82.10;;;;;;5090842;28;20122;-60
2021/08/22 02:21:28;;;;;;;;;;;16.40;82.20;;;;;;5090857;28;20399;-60
2021/08/22 02:23:54;;;;;;;;;;;16.40;82.00;;;;;;5090932;28;19928;-60
2021/08/22 02:26:22;;;;;;;;;;;16.50;81.90;;;;;;5091366;28;19916;-60
2021/08/22 02:28:55;;;;;;;;;;;16.50;81.70;;;;;;5090880;28;19916;-60
2021/08/22 02:31:20;;;;;;;;;;;16.50;81.60;;;;;;5090266;28;20351;-60
2021/08/22 02:33:46;;;;;;;;;;;16.50;81.50;;;;;;5073077;28;19977;-60
2021/08/22 02:36:12;;;;;;;;;;;16.40;81.40;;;;;;5090759;28;19939;-60
2021/08/22 02:38:37;;;;;;;;;;;16.40;81.90;;;;;;5090946;28;20423;-60
2021/08/22 02:41:03;;;;;;;;;;;16.40;81.10;;;;;;5090974;28;20299;-60
2021/08/22 02:43:28;;;;;;;;;;;16.40;81.10;;;;;;5092205;28;20299;-60
2021/08/22 02:45:54;;;;;;;;;;;16.40;81.50;;;;;;5094837;28;19920;-60
2021/08/22 02:48:19;;;;;;;;;;;16.40;80.80;;;;;;5094582;28;19920;-60
2021/08/22 02:50:45;;;;;;;;;;;16.40;80.70;;;;;;5094296;28;20376;-61
2021/08/22 02:53:10;;;;;;;;;;;16.40;80.60;;;;;;5094449;28;19924;-60
2021/08/22 02:55:36;;;;;;;;;;;16.40;80.30;;;;;;5094441;28;19928;-60
2021/08/22 02:58:02;;;;;;;;;;;16.40;80.20;;;;;;5093708;28;19924;-60
2021/08/22 03:00:28;;;;;;;;;;;16.40;80.10;;;;;;5094452;28;19916;-60
2021/08/22 03:02:53;;;;;;;;;;;16.40;80.10;;;;;;5093641;28;19989;-61
2021/08/22 03:05:19;;;;;;;;;;;16.40;79.90;;;;;;5077810;28;19916;-60
2021/08/22 03:07:44;;;;;;;;;;;16.40;79.70;;;;;;5094065;28;19923;-60
2021/08/22 03:10:10;;;;;;;;;;;16.40;79.50;;;;;;5075700;28;20010;-60
2021/08/22 03:12:36;;;;;;;;;;;16.40;79.50;;;;;;5094141;28;19924;-60
2021/08/22 03:15:03;;;;;;;;;;;16.40;79.50;;;;;;5093851;28;19931;-61
2021/08/22 03:17:29;;;;;;;;;;;16.50;79.50;;;;;;5093597;28;19999;-59
2021/08/22 03:19:55;;;;;;;;;;;16.40;79.40;;;;;;5076083;28;20011;-59
2021/08/22 03:22:22;;;;;;;;;;;16.50;79.30;;;;;;5093435;28;19966;-59
2021/08/22 03:24:47;;;;;;;;;;;16.50;79.10;;;;;;5093954;28;20319;-61
2021/08/22 03:27:13;;;;;;;;;;;16.50;79.00;;;;;;5093615;28;19916;-60
2021/08/22 03:29:38;;;;;;;;;;;16.50;78.90;;;;;;5092814;28;20003;-60
2021/08/22 03:32:04;;;;;;;;;;;16.50;78.80;;;;;;5075650;28;19916;-59
2021/08/22 03:34:30;;;;;;;;;;;16.50;78.80;;;;;;5092106;28;19922;-60
2021/08/22 03:36:55;;;;;;;;;;;16.40;78.80;;;;;;5093505;28;19920;-60
2021/08/22 03:39:21;;;;;;;;;;;16.40;78.80;;;;;;5093743;28;19924;-60
2021/08/22 03:41:46;;;;;;;;;;;16.40;78.80;;;;;;5092781;28;19916;-60
2021/08/22 03:44:12;;;;;;;;;;;16.40;78.70;;;;;;5093612;28;19924;-59
2021/08/22 03:46:37;;;;;;;;;;;16.40;78.70;;;;;;5093393;28;19916;-60
2021/08/22 03:49:03;;;;;;;;;;;16.40;78.60;;;;;;5093067;28;19916;-60
2021/08/22 03:51:28;;;;;;;;;;;16.50;79.10;;;;;;5093419;28;19920;-59
2021/08/22 03:53:57;;;;;;;;;;;16.50;78.50;;;;;;5092993;28;19970;-59
2021/08/22 03:56:22;;;;;;;;;;;16.50;78.40;;;;;;5092647;28;19917;-59
2021/08/22 03:58:48;;;;;;;;;;;16.50;78.30;;;;;;5093251;28;20023;-59
2021/08/22 04:01:13;;;;;;;;;;;16.50;78.20;;;;;;5092989;28;19919;-60
2021/08/22 04:03:48;;;;;;;;;;;16.50;78.10;;;;;;5093387;28;19944;-59
2021/08/22 04:06:33;;;;;;;;;;;16.50;77.90;;;;;;5084977;28;20351;-59
2021/08/22 04:09:00;;;;;;;;;;;16.50;77.80;;;;;;5092771;28;19919;-59
2021/08/22 04:11:27;;;;;;;;;;;16.50;77.80;;;;;;5075211;28;19935;-59
2021/08/22 04:13:52;;;;;;;;;;;16.50;77.70;;;;;;5092731;28;19927;-60
2021/08/22 04:16:18;;;;;;;;;;;16.50;77.70;;;;;;5093041;28;20433;-59
2021/08/22 04:18:43;;;;;;;;;;;16.50;77.60;;;;;;5092023;28;19916;-60
2021/08/22 04:21:09;;;;;;;;;;;16.50;77.60;;;;;;5092811;28;19974;-59
2021/08/22 04:23:34;;;;;;;;;;;16.50;77.50;;;;;;5092885;28;19962;-59
2021/08/22 04:26:00;;;;;;;;;;;16.40;77.40;;;;;;5091291;28;19923;-60
2021/08/22 04:28:26;;;;;;;;;;;16.40;77.40;;;;;;5092672;28;20379;-59
2021/08/22 04:30:52;;;;;;;;;;;16.50;77.40;;;;;;5085564;28;19947;-59
2021/08/22 04:33:18;;;;;;;;;;;16.50;77.40;;;;;;5091913;28;19916;-59
2021/08/22 04:35:43;;;;;;;;;;;16.50;77.30;;;;;;5092589;28;19916;-59
2021/08/22 04:38:09;;;;;;;;;;;16.60;77.20;;;;;;5092301;28;19917;-59
2021/08/22 04:40:36;;;;;;;;;;;16.50;77.10;;;;;;5092279;28;19920;-59
2021/08/22 04:43:02;;;;;;;;;;;16.60;77.00;;;;;;5082977;28;19921;-59
2021/08/22 04:45:28;;;;;;;;;;;16.60;77.00;;;;;;5092163;28;20340;-59
2021/08/22 04:47:53;;;;;;;;;;;16.60;76.80;;;;;;5092190;28;19958;-59
2021/08/22 04:50:19;;;;;;;;;;;16.60;76.80;;;;;;5092373;28;20006;-59
2021/08/22 04:52:44;;;;;;;;;;;16.60;76.60;;;;;;5091521;28;19916;-60
2021/08/22 04:55:10;;;;;;;;;;;16.70;76.60;;;;;;5074228;28;19917;-59
2021/08/22 04:57:35;;;;;;;;;;;16.70;76.50;;;;;;5091372;28;20482;-59
2021/08/22 05:00:02;;;;;;;;;;;16.70;76.40;;;;;;5092340;28;19916;-60
2021/08/22 05:02:27;;;;;;;;;;;16.70;76.40;;;;;;5092099;28;20414;-59
2021/08/22 05:04:53;;;;;;;;;;;16.70;76.20;;;;;;5091473;28;19916;-59
2021/08/22 05:07:18;;;;;;;;;;;16.80;76.10;;;;;;5090891;28;19986;-60
2021/08/22 05:09:44;;;;;;;;;;;16.80;76.00;;;;;;5092063;28;19916;-59
2021/08/22 05:12:09;;;;;;;;;;;16.80;75.80;;;;;;5091300;28;19920;-59
2021/08/22 05:14:35;;;;;;;;;;;16.80;75.70;;;;;;5092045;28;19916;-59
2021/08/22 05:17:01;;;;;;;;;;;16.90;75.70;;;;;;5090727;28;19916;-60
2021/08/22 05:19:27;;;;;;;;;;;16.90;75.60;;;;;;5073717;28;19991;-59
2021/08/22 05:21:52;;;;;;;;;;;16.90;75.50;;;;;;5091785;28;20355;-59
2021/08/22 05:24:18;;;;;;;;;;;16.90;75.40;;;;;;5091297;28;19920;-60
2021/08/22 05:26:43;;;;;;;;;;;16.90;75.40;;;;;;5073571;28;19981;-59
2021/08/22 05:29:09;;;;;;;;;;;17.00;75.20;;;;;;5083805;28;20383;-59
2021/08/22 05:31:34;;;;;;;;;;;17.00;75.10;;;;;;5091263;28;19920;-59
2021/08/22 05:34:00;;;;;;;;;;;17.00;75.00;;;;;;5090530;28;19917;-59
2021/08/22 05:36:25;;;;;;;;;;;17.10;75.10;;;;;;5091633;28;19924;-59
2021/08/22 05:38:52;;;;;;;;;;;17.00;75.10;;;;;;5090958;28;19920;-59
2021/08/22 05:41:18;;;;;;;;;;;17.00;75.00;;;;;;5091352;28;19981;-59
2021/08/22 05:43:44;;;;;;;;;;;17.10;75.00;;;;;;5091445;28;20372;-59
2021/08/22 05:46:10;;;;;;;;;;;17.10;74.90;;;;;;5091360;28;19923;-59
2021/08/22 05:48:36;;;;;;;;;;;17.10;74.90;;;;;;5091218;28;20419;-58
2021/08/22 05:51:01;;;;;;;;;;;17.10;74.80;;;;;;5090919;28;19916;-59
2021/08/22 05:53:30;;;;;;;;;;;17.00;74.80;;;;;;5091228;28;19916;-59
2021/08/22 05:55:56;;;;;;;;;;;17.00;74.80;;;;;;5091627;28;20390;-59
2021/08/22 05:58:22;;;;;;;;;;;17.10;75.00;;;;;;5090894;28;20424;-59
2021/08/22 06:00:47;;;;;;;;;;;17.10;74.80;;;;;;5091510;28;20007;-59
2021/08/22 06:03:13;;;;;;;;;;;17.10;74.80;;;;;;5090069;28;19943;-58
2021/08/22 06:05:38;;;;;;;;;;;17.10;74.70;;;;;;5090724;28;19939;-59
2021/08/22 06:08:04;;;;;;;;;;;17.10;74.50;;;;;;5091064;28;20299;-58
2021/08/22 06:10:29;;;;;;;;;;;17.10;74.40;;;;;;5090910;28;19917;-60
2021/08/22 06:12:55;;;;;;;;;;;17.00;74.40;;;;;;5091050;28;19924;-60
2021/08/22 06:15:21;;;;;;;;;;;17.00;74.30;;;;;;5091150;28;19916;-61
2021/08/22 06:17:46;;;;;;;;;;;17.00;74.40;;;;;;5090712;28;19920;-61
2021/08/22 06:20:12;;;;;;;;;;;16.90;74.40;;;;;;5095222;28;19955;-60
2021/08/22 06:22:37;;;;;;;;;;;16.90;74.40;;;;;;5095183;28;19916;-60
2021/08/22 06:25:03;;;;;;;;;;;16.90;74.40;;;;;;5094902;28;20402;-60
2021/08/22 06:27:29;;;;;;;;;;;16.90;74.40;;;;;;5094936;28;20368;-60
2021/08/22 06:29:54;;;;;;;;;;;16.90;74.40;;;;;;5063935;28;20379;-60
2021/08/22 06:32:20;;;;;;;;;;;16.90;74.50;;;;;;5076808;28;20027;-60
2021/08/22 06:34:45;;;;;;;;;;;16.90;74.70;;;;;;5095072;28;19919;-58
2021/08/22 06:37:11;;;;;;;;;;;17.00;74.90;;;;;;5094243;28;19916;-58
2021/08/22 06:39:41;;;;;;;;;;;16.90;74.80;;;;;;5094796;28;19916;-60
2021/08/22 06:42:07;;;;;;;;;;;17.00;74.90;;;;;;5094509;28;20007;-60
2021/08/22 06:44:33;;;;;;;;;;;17.00;74.90;;;;;;5092991;28;19920;-60
2021/08/22 06:46:59;;;;;;;;;;;17.00;74.90;;;;;;5094454;28;19923;-60
2021/08/22 06:49:24;;;;;;;;;;;17.10;74.90;;;;;;5093920;28;20283;-60
2021/08/22 06:51:50;;;;;;;;;;;17.20;75.00;;;;;;5093359;28;20249;-60
2021/08/22 06:54:15;;;;;;;;;;;17.30;74.80;;;;;;5083480;28;19998;-60
2021/08/22 06:56:41;;;;;;;;;;;17.30;74.60;;;;;;5093570;28;19916;-60
2021/08/22 06:59:06;;;;;;;;;;;17.40;74.40;;;;;;5094497;28;20363;-60
2021/08/22 07:01:32;;;;;;;;;;;17.40;74.30;;;;;;5094455;28;19927;-60
2021/08/22 07:03:57;;;;;;;;;;;17.50;74.10;;;;;;5093891;28;19989;-60
2021/08/22 07:06:23;;;;;;;;;;;17.50;74.00;;;;;;5093838;28;20000;-60
2021/08/22 07:08:48;;;;;;;;;;;17.50;73.80;;;;;;5093595;28;19916;-61
2021/08/22 07:11:14;;;;;;;;;;;17.50;73.60;;;;;;5093960;28;20440;-60
2021/08/22 07:13:40;;;;;;;;;;;17.50;73.40;;;;;;5076192;28;19916;-60
2021/08/22 07:16:06;;;;;;;;;;;17.50;73.30;;;;;;5093492;28;19922;-61
2021/08/22 07:18:32;;;;;;;;;;;17.50;73.80;;;;;;5093809;28;20292;-60
2021/08/22 07:20:58;;;;;;;;;;;17.40;73.30;;;;;;5094238;28;19923;-60
2021/08/22 07:23:24;;;;;;;;;;;17.30;73.10;;;;;;5093560;28;19920;-60
2021/08/22 07:25:51;;;;;;;;;;;17.30;73.20;;;;;;5094005;28;19916;-60
2021/08/22 07:28:16;;;;;;;;;;;17.30;73.40;;;;;;5092769;28;20404;-61
2021/08/22 07:30:42;;;;;;;;;;;17.20;73.40;;;;;;5092811;28;19916;-60
2021/08/22 07:33:09;;;;;;;;;;;17.30;73.60;;;;;;5093607;28;20380;-60
2021/08/22 07:35:35;;;;;;;;;;;17.30;73.60;;;;;;5093157;28;19917;-60
2021/08/22 07:38:00;;;;;;;;;;;17.40;73.90;;;;;;5093570;28;19944;-60
2021/08/22 07:40:26;;;;;;;;;;;17.60;73.90;;;;;;5093298;28;20446;-60
2021/08/22 07:42:52;;;;;;;;;;;17.70;74.00;;;;;;5091807;28;19946;-60
2021/08/22 07:45:17;;;;;;;;;;;17.90;73.80;;;;;;5093655;28;19923;-60
2021/08/22 07:47:44;;;;;;;;;;;18.10;73.50;;;;;;5093425;28;19954;-60
2021/08/22 07:50:09;;;;;;;;;;;18.20;73.10;;;;;;5093315;28;19920;-60
2021/08/22 07:52:35;;;;;;;;;;;18.40;73.10;;;;;;5100089;28;20366;-60
2021/08/22 07:55:00;;;;;;;;;;;18.60;72.80;;;;;;5093022;28;20004;-62
2021/08/22 07:57:26;;;;;;;;;;;18.60;72.10;;;;;;5092909;28;19916;-60
2021/08/22 07:59:51;;;;;;;;;;;18.60;71.80;;;;;;5093347;28;19916;-60
2021/08/22 08:02:17;;;;;;;;;;;18.60;71.50;;;;;;5092694;28;19916;-60
2021/08/22 08:04:43;;;;;;;;;;;18.60;71.30;;;;;;5081718;28;19927;-60
2021/08/22 08:07:08;;;;;;;;;;;18.60;71.60;;;;;;5092914;28;20045;-59
2021/08/22 08:09:34;;;;;;;;;;;18.20;71.60;;;;;;5092682;28;19970;-60
2021/08/22 08:11:59;;;;;;;;;;;18.80;71.90;;;;;;5093429;28;19926;-62
2021/08/22 08:14:25;;;;;;;;;;;18.90;71.50;;;;;;5093118;28;19916;-63
2021/08/22 08:16:51;;;;;;;;;;;18.80;71.00;;;;;;5092107;28;19931;-63
2021/08/22 08:19:16;;;;;;;;;;;18.90;71.30;;;;;;5092891;28;19956;-63
2021/08/22 08:21:42;;;;;;;;;;;19.00;71.70;;;;;;5092329;28;19943;-63
2021/08/22 08:24:07;;;;;;;;;;;19.30;71.50;;;;;;5092814;28;19954;-63
2021/08/22 08:26:33;;;;;;;;;;;19.70;71.50;;;;;;5092714;28;19917;-63
2021/08/22 08:29:00;;;;;;;;;;;20.00;71.00;;;;;;5091910;28;19916;-63
2021/08/22 08:31:25;;;;;;;;;;;20.20;69.50;;;;;;5092334;28;20003;-63
2021/08/22 08:33:52;;;;;;;;;;;20.20;68.60;;;;;;5091295;28;19923;-63
2021/08/22 08:36:17;;;;;;;;;;;20.10;68.00;;;;;;5092340;28;20355;-63
2021/08/22 08:38:43;;;;;;;;;;;20.00;67.80;;;;;;5092377;28;20012;-63
2021/08/22 08:41:08;;;;;;;;;;;19.90;67.40;;;;;;5091732;28;19916;-63
2021/08/22 08:43:34;;;;;;;;;;;19.80;67.60;;;;;;5074318;28;19989;-63
2021/08/22 08:46:08;;;;;;;;;;;19.70;67.30;;;;;;5092499;28;19916;-63
2021/08/22 08:48:37;;;;;;;;;;;19.50;67.10;;;;;;5091796;28;19962;-63
2021/08/22 08:51:03;;;;;;;;;;;19.40;67.10;;;;;;5092172;28;19912;-63
2021/08/22 08:53:32;;;;;;;;;;;19.40;67.30;;;;;;5091410;28;19928;-63
2021/08/22 08:56:10;;;;;;;;;;;19.40;67.40;;;;;;5092387;28;19916;-63
2021/08/22 08:58:36;;;;;;;;;;;19.50;67.90;;;;;;5090280;28;19924;-63
2021/08/22 09:01:02;;;;;;;;;;;20.10;69.20;;;;;;5092374;28;19939;-63
2021/08/22 09:03:27;;;;;;;;;;;20.60;68.60;;;;;;5091876;28;19920;-63
2021/08/22 09:06:04;;;;;;;;;;;20.90;66.70;;;;;;5091772;28;20007;-63
2021/08/22 09:08:45;;;;;;;;;;;21.10;66.00;;;;;;5091798;28;19964;-63
2021/08/22 09:11:23;;;;;;;;;;;21.10;65.10;;;;;;5056323;28;20340;-63
2021/08/22 09:14:07;;;;;;;;;;;21.10;64.60;;;;;;5091617;28;20319;-62
2021/08/22 09:16:32;;;;;;;;;;;21.10;64.40;;;;;;5091447;28;19916;-63
2021/08/22 09:19:17;;;;;;;;;;;21.10;63.60;;;;;;5091635;28;20265;-63
2021/08/22 09:22:01;;;;;;;;;;;20.90;63.30;;;;;;5091311;28;19920;-63
2021/08/22 09:24:45;;;;;;;;;;;20.90;63.60;;;;;;5091186;28;20007;-63
2021/08/22 09:27:30;;;;;;;;;;;20.80;63.70;;;;;;5091265;28;19916;-63
2021/08/22 09:30:24;;;;;;;;;;;20.80;63.40;;;;;;5089911;28;19923;-64
2021/08/22 09:33:09;;;;;;;;;;;20.60;62.70;;;;;;5018592;28;19925;-63
2021/08/22 09:35:53;;;;;;;;;;;20.30;63.10;;;;;;5091730;28;19923;-63
2021/08/22 09:38:37;;;;;;;;;;;20.20;63.60;;;;;;5090858;28;19923;-62
2021/08/22 09:41:31;;;;;;;;;;;20.10;63.30;;;;;;5090876;28;20391;-63
2021/08/22 09:44:15;;;;;;;;;;;19.90;63.30;;;;;;5091173;28;20014;-63
2021/08/22 09:47:00;;;;;;;;;;;19.80;63.90;;;;;;5091461;28;19978;-63
2021/08/22 09:49:31;;;;;;;;;;;19.90;64.60;;;;;;5091051;28;19969;-63
2021/08/22 09:52:06;;;;;;;;;;;19.90;64.50;;;;;;5091107;28;19916;-63
2021/08/22 09:54:44;;;;;;;;;;;19.80;64.40;;;;;;5094418;28;20008;-63
2021/08/22 09:57:28;;;;;;;;;;;19.80;64.50;;;;;;5095359;28;19930;-63
2021/08/22 10:00:12;;;;;;;;;;;19.80;64.80;;;;;;5095308;28;19965;-63
2021/08/22 10:02:53;;;;;;;;;;;19.80;65.70;;;;;;5094887;28;19920;-63
2021/08/22 10:05:34;;;;;;;;;;;19.90;65.20;;;;;;5095517;28;19916;-63
2021/08/22 10:08:18;;;;;;;;;;;19.80;64.70;;;;;;5087078;28;19924;-63
2021/08/22 10:10:45;;;;;;;;;;;19.70;65.00;;;;;;5085772;28;19924;-63
2021/08/22 10:13:11;;;;;;;;;;;19.70;65.30;;;;;;5084901;28;19924;-63
2021/08/22 10:15:41;;;;;;;;;;;19.60;65.60;;;;;;5085734;28;19930;-63
2021/08/22 10:18:07;;;;;;;;;;;19.60;66.10;;;;;;5083911;28;19916;-63
2021/08/22 10:20:39;;;;;;;;;;;19.50;66.20;;;;;;5083821;28;19970;-63
2021/08/22 10:23:05;;;;;;;;;;;19.40;66.10;;;;;;5082519;28;19924;-63
2021/08/22 10:25:46;;;;;;;;;;;19.40;66.40;;;;;;5071170;28;19912;-63
2021/08/22 10:28:12;;;;;;;;;;;19.40;66.50;;;;;;5094682;28;19916;-63
2021/08/22 10:30:43;;;;;;;;;;;19.30;66.80;;;;;;5076454;28;19923;-63
2021/08/22 10:33:10;;;;;;;;;;;19.30;67.20;;;;;;5089014;28;19916;-63
2021/08/22 10:35:35;;;;;;;;;;;19.30;67.60;;;;;;5085083;28;19916;-63
2021/08/22 10:38:20;;;;;;;;;;;19.20;67.60;;;;;;5085098;28;19922;-63
2021/08/22 10:40:46;;;;;;;;;;;19.30;67.90;;;;;;5084894;28;19995;-63
2021/08/22 10:43:12;;;;;;;;;;;19.20;68.20;;;;;;5085151;28;19970;-63
2021/08/22 10:45:40;;;;;;;;;;;19.20;68.20;;;;;;5090933;28;19916;-63
2021/08/22 10:48:26;;;;;;;;;;;19.00;68.40;;;;;;5094373;28;19923;-63
2021/08/22 10:51:08;;;;;;;;;;;18.90;68.90;;;;;;5073383;28;19920;-63
2021/08/22 10:53:35;;;;;;;;;;;18.80;69.00;;;;;;5080882;28;19997;-63
2021/08/22 10:56:19;;;;;;;;;;;18.70;69.10;;;;;;5071616;28;19916;-63
2021/08/22 10:59:07;;;;;;;;;;;18.60;69.40;;;;;;5071474;28;20376;-63
2021/08/22 11:01:36;;;;;;;;;;;18.60;69.90;;;;;;5072297;28;19916;-63
2021/08/22 11:04:07;;;;;;;;;;;18.60;70.20;;;;;;5081354;28;19919;-63
2021/08/22 11:06:34;;;;;;;;;;;18.60;70.20;;;;;;5081438;28;20408;-63
2021/08/22 11:09:00;;;;;;;;;;;18.40;70.60;;;;;;5072118;28;19916;-63
2021/08/22 11:11:25;;;;;;;;;;;18.40;70.90;;;;;;5072598;28;20320;-63
2021/08/22 11:13:58;;;;;;;;;;;18.30;71.30;;;;;;5073585;28;19916;-63
2021/08/22 11:16:40;;;;;;;;;;;18.20;71.60;;;;;;5073566;28;20414;-63
2021/08/22 11:19:06;;;;;;;;;;;18.10;72.10;;;;;;5073647;28;20284;-63
2021/08/22 11:21:32;;;;;;;;;;;18.00;72.60;;;;;;5076930;28;20377;-63
2021/08/22 11:23:58;;;;;;;;;;;17.90;73.50;;;;;;5092223;28;19962;-63
2021/08/22 11:26:24;;;;;;;;;;;18.00;74.10;;;;;;5091859;28;20421;-63
2021/08/22 11:28:53;;;;;;;;;;;18.10;74.80;;;;;;5093391;28;19920;-63
2021/08/22 11:31:19;;;;;;;;;;;18.20;75.00;;;;;;5093774;28;19920;-63
2021/08/22 11:33:45;;;;;;;;;;;18.30;75.50;;;;;;5093273;28;19966;-63
2021/08/22 11:36:10;;;;;;;;;;;18.40;75.80;;;;;;5093715;28;20292;-63
2021/08/22 11:38:36;;;;;;;;;;;18.50;75.80;;;;;;5092896;28;19985;-63
2021/08/22 11:41:02;;;;;;;;;;;18.60;76.30;;;;;;5093501;28;20337;-63
2021/08/22 11:43:28;;;;;;;;;;;18.70;76.40;;;;;;5075459;28;19920;-64
2021/08/22 11:45:54;;;;;;;;;;;18.70;76.40;;;;;;5092992;28;19916;-63
2021/08/22 11:48:20;;;;;;;;;;;18.70;76.50;;;;;;5093207;28;19923;-63
2021/08/22 11:50:46;;;;;;;;;;;18.70;76.60;;;;;;5093296;28;20367;-63
2021/08/22 11:53:12;;;;;;;;;;;18.70;76.70;;;;;;5092796;28;19944;-63
2021/08/22 11:55:41;;;;;;;;;;;18.70;76.80;;;;;;5093297;28;19989;-63
2021/08/22 11:58:06;;;;;;;;;;;18.60;76.90;;;;;;5092564;28;19928;-64
2021/08/22 12:00:33;;;;;;;;;;;18.60;77.00;;;;;;5093365;28;19916;-63
2021/08/22 12:03:03;;;;;;;;;;;18.60;77.50;;;;;;5093030;28;19923;-64
2021/08/22 12:05:30;;;;;;;;;;;18.60;77.50;;;;;;5092825;28;19922;-63
2021/08/22 12:08:09;;;;;;;;;;;18.50;77.60;;;;;;5086220;28;19924;-63
2021/08/22 12:10:41;;;;;;;;;;;18.50;78.10;;;;;;5091811;28;19916;-63
2021/08/22 12:13:14;;;;;;;;;;;18.70;78.40;;;;;;5091227;28;19939;-63
2021/08/22 12:15:41;;;;;;;;;;;18.70;78.50;;;;;;5088653;28;19923;-63
2021/08/22 12:18:13;;;;;;;;;;;18.70;78.30;;;;;;5087643;28;19916;-63
2021/08/22 12:20:39;;;;;;;;;;;18.80;78.90;;;;;;5088692;28;19952;-63
2021/08/22 12:23:06;;;;;;;;;;;18.80;79.00;;;;;;5088848;28;19963;-63
2021/08/22 12:25:34;;;;;;;;;;;18.90;78.80;;;;;;5057361;28;19916;-63
2021/08/22 12:28:19;;;;;;;;;;;18.90;79.10;;;;;;5072926;28;20367;-63
2021/08/22 12:30:46;;;;;;;;;;;18.90;79.40;;;;;;5071789;28;20061;-63
2021/08/22 12:33:25;;;;;;;;;;;18.90;78.50;;;;;;5072681;28;19917;-63
2021/08/22 12:35:59;;;;;;;;;;;18.80;78.60;;;;;;5088968;28;19947;-63
2021/08/22 12:38:54;;;;;;;;;;;18.70;79.00;;;;;;5090548;28;20351;-63
2021/08/22 12:41:39;;;;;;;;;;;18.50;78.80;;;;;;5073067;28;19924;-63
2021/08/22 12:44:06;;;;;;;;;;;18.40;79.10;;;;;;5090369;28;19927;-63
2021/08/22 12:46:32;;;;;;;;;;;18.40;79.70;;;;;;5082573;28;19941;-63
2021/08/22 12:48:58;;;;;;;;;;;18.30;79.60;;;;;;5091551;28;19912;-63
2021/08/22 12:51:24;;;;;;;;;;;18.30;79.80;;;;;;5090993;28;19924;-63
2021/08/22 12:53:50;;;;;;;;;;;18.20;80.30;;;;;;5091052;28;19924;-63
2021/08/22 12:56:15;;;;;;;;;;;18.20;80.10;;;;;;5091933;28;19922;-63
2021/08/22 12:58:41;;;;;;;;;;;18.20;80.60;;;;;;5082881;28;20372;-63
2021/08/22 13:01:07;;;;;;;;;;;18.20;81.00;;;;;;5089862;28;19920;-63
2021/08/22 13:03:33;;;;;;;;;;;18.20;81.80;;;;;;5090667;28;19920;-63
2021/08/22 13:05:58;;;;;;;;;;;18.30;81.60;;;;;;5090403;28;20447;-63
2021/08/22 13:08:24;;;;;;;;;;;18.40;81.50;;;;;;5090520;28;19948;-63
2021/08/22 13:10:49;;;;;;;;;;;18.50;81.70;;;;;;5089927;28;20261;-63
2021/08/22 13:13:15;;;;;;;;;;;18.50;81.50;;;;;;5090607;28;20288;-63
2021/08/22 13:15:40;;;;;;;;;;;18.50;81.20;;;;;;5090612;28;20392;-63
2021/08/22 13:18:06;;;;;;;;;;;18.50;81.50;;;;;;5080433;28;19920;-63
2021/08/22 13:20:31;;;;;;;;;;;18.50;81.40;;;;;;5079153;28;20285;-63
2021/08/22 13:22:57;;;;;;;;;;;18.40;81.50;;;;;;5081085;28;19962;-63
2021/08/22 13:25:23;;;;;;;;;;;18.40;81.80;;;;;;5061943;28;19917;-63
2021/08/22 13:27:48;;;;;;;;;;;18.40;81.40;;;;;;5078560;28;20372;-63
2021/08/22 13:30:14;;;;;;;;;;;18.30;81.40;;;;;;5081363;28;19938;-63
2021/08/22 13:32:39;;;;;;;;;;;18.10;81.10;;;;;;5079299;28;19920;-63
2021/08/22 13:35:06;;;;;;;;;;;18.00;81.60;;;;;;5079978;28;19965;-63
2021/08/22 13:37:31;;;;;;;;;;;18.00;82.20;;;;;;5079814;28;19959;-64
2021/08/22 13:39:57;;;;;;;;;;;18.00;82.50;;;;;;5088242;28;19950;-63
2021/08/22 13:42:23;;;;;;;;;;;18.00;82.80;;;;;;5090038;28;19916;-63
2021/08/22 13:44:48;;;;;;;;;;;18.00;82.70;;;;;;5090104;28;19951;-64
2021/08/22 13:47:14;;;;;;;;;;;18.00;83.00;;;;;;5089603;28;20329;-63
2021/08/22 13:49:40;;;;;;;;;;;18.00;83.10;;;;;;5090082;28;19916;-63
2021/08/22 13:52:05;;;;;;;;;;;18.00;83.00;;;;;;5089554;28;19916;-63
2021/08/22 13:54:31;;;;;;;;;;;18.00;83.00;;;;;;5071884;28;19920;-63
2021/08/22 13:56:56;;;;;;;;;;;17.90;83.20;;;;;;5066419;28;19927;-63
2021/08/22 13:59:22;;;;;;;;;;;17.90;83.20;;;;;;5079464;28;19920;-63
2021/08/22 14:01:47;;;;;;;;;;;17.80;83.40;;;;;;5083088;28;19916;-63
2021/08/22 14:04:13;;;;;;;;;;;17.70;83.40;;;;;;5090099;28;19924;-63
2021/08/22 14:06:38;;;;;;;;;;;17.70;83.80;;;;;;5089225;28;19920;-63
2021/08/22 14:09:04;;;;;;;;;;;17.70;84.20;;;;;;5089614;28;19916;-63
2021/08/22 14:11:30;;;;;;;;;;;17.70;84.20;;;;;;5089191;28;19919;-63
2021/08/22 14:13:56;;;;;;;;;;;17.60;84.50;;;;;;5090079;28;19912;-63
2021/08/22 14:16:21;;;;;;;;;;;17.70;84.80;;;;;;5089999;28;20338;-63
2021/08/22 14:18:47;;;;;;;;;;;17.70;84.70;;;;;;5089157;28;19921;-63
2021/08/22 14:21:13;;;;;;;;;;;17.70;85.00;;;;;;5089708;28;19916;-63